Time;durP1;ratioP1;P1;durP2;ratioP2;P2;SDS_P1;SDS_P2;PMS_P1;PMS_P2;Temp;Humidity;BMP_temperature;BMP_pressure;BME280_temperature;BME280_humidity;BME280_pressure;Samples;Min_cycle;Max_cycle;Signal;HPM_P1;HPM_P2
2024/01/13 00:01:03;;;;;;;42.88;23.17;;;;;;;;;;5102729;27;20058;-60
2024/01/13 00:03:30;;;;;;;24.08;16.27;;;;;;;;;;5104998;28;20056;-60
2024/01/13 00:05:57;;;;;;;33.58;19.63;;;;;;;;;;5104013;28;20083;-61
2024/01/13 00:08:23;;;;;;;27.10;16.45;;;;;;;;;;5104659;28;20518;-61
2024/01/13 00:11:02;;;;;;;22.42;15.00;;;;;;;;;;5104567;28;20537;-61
2024/01/13 00:13:28;;;;;;;27.05;14.52;;;;;;;;;;5104957;27;20069;-60
2024/01/13 00:15:55;;;;;;;27.98;16.88;;;;;;;;;;5104491;27;20055;-61
2024/01/13 00:18:21;;;;;;;31.35;16.23;;;;;;;;;;5104013;27;20059;-61
2024/01/13 00:21:04;;;;;;;23.77;14.50;;;;;;;;;;5102806;27;20056;-60
2024/01/13 00:23:30;;;;;;;26.55;16.35;;;;;;;;;;5104451;28;20052;-60
2024/01/13 00:25:57;;;;;;;26.48;14.88;;;;;;;;;;5104926;27;20176;-61
2024/01/13 00:28:23;;;;;;;26.70;14.00;;;;;;;;;;5104598;27;20052;-60
2024/01/13 00:31:01;;;;;;;22.90;14.02;;;;;;;;;;5103960;28;20060;-61
2024/01/13 00:33:27;;;;;;;24.10;14.63;;;;;;;;;;5103412;27;20059;-61
2024/01/13 00:35:54;;;;;;;25.17;13.18;;;;;;;;;;5103686;27;20391;-60
2024/01/13 00:38:20;;;;;;;22.13;13.13;;;;;;;;;;5104319;27;20491;-59
2024/01/13 00:40:59;;;;;;;20.60;14.00;;;;;;;;;;5104460;27;20052;-60
2024/01/13 00:43:25;;;;;;;22.50;13.48;;;;;;;;;;5104115;27;20593;-60
2024/01/13 00:45:52;;;;;;;21.15;13.90;;;;;;;;;;5103455;27;20048;-61
2024/01/13 00:48:18;;;;;;;18.65;12.80;;;;;;;;;;5104689;27;20468;-61
2024/01/13 00:50:52;;;;;;;16.38;12.68;;;;;;;;;;5103758;27;20052;-61
2024/01/13 00:53:18;;;;;;;20.52;12.88;;;;;;;;;;5103320;28;20048;-61
2024/01/13 00:55:45;;;;;;;16.98;11.48;;;;;;;;;;5103884;28;20510;-61
2024/01/13 00:58:11;;;;;;;17.33;12.13;;;;;;;;;;5103982;27;20050;-61
2024/01/13 01:00:52;;;;;;;17.50;12.35;;;;;;;;;;5092826;28;20512;-60
2024/01/13 01:03:19;;;;;;;19.17;11.55;;;;;;;;;;5104520;28;20075;-60
2024/01/13 01:05:45;;;;;;;19.23;12.02;;;;;;;;;;5104038;28;20468;-61
2024/01/13 01:08:12;;;;;;;17.00;10.55;;;;;;;;;;5102304;27;20083;-60
2024/01/13 01:10:48;;;;;;;16.55;10.23;;;;;;;;;;5083946;28;20092;-61
2024/01/13 01:13:14;;;;;;;18.52;10.32;;;;;;;;;;5082185;28;20074;-61
2024/01/13 01:15:45;;;;;;;16.05;11.05;;;;;;;;;;5099200;28;20059;-60
2024/01/13 01:18:12;;;;;;;17.30;11.13;;;;;;;;;;5103978;27;20133;-58
2024/01/13 01:20:47;;;;;;;17.20;11.70;;;;;;;;;;5104130;27;20052;-60
2024/01/13 01:23:14;;;;;;;15.52;10.40;;;;;;;;;;5103716;27;20048;-60
2024/01/13 01:25:40;;;;;;;15.20;9.85;;;;;;;;;;5103514;27;20113;-60
2024/01/13 01:28:07;;;;;;;14.80;9.30;;;;;;;;;;5103387;27;20518;-61
2024/01/13 01:30:34;;;;;;;15.43;10.07;;;;;;;;;;5102857;27;20056;-60
2024/01/13 01:33:00;;;;;;;18.55;10.38;;;;;;;;;;5103421;27;20052;-58
2024/01/13 01:35:27;;;;;;;14.38;9.18;;;;;;;;;;5103322;27;20052;-61
2024/01/13 01:37:53;;;;;;;15.75;8.40;;;;;;;;;;5103238;27;20505;-61
2024/01/13 01:40:20;;;;;;;14.63;9.32;;;;;;;;;;5103810;27;20059;-60
2024/01/13 01:42:46;;;;;;;18.00;9.55;;;;;;;;;;5103507;27;20056;-61
2024/01/13 01:45:13;;;;;;;16.90;10.30;;;;;;;;;;5102860;27;20917;-58
2024/01/13 01:47:41;;;;;;;16.55;10.18;;;;;;;;;;5103902;28;20052;-61
2024/01/13 01:50:08;;;;;;;16.73;9.75;;;;;;;;;;5102247;28;20150;-61
2024/01/13 01:52:36;;;;;;;16.17;10.07;;;;;;;;;;5103855;27;20251;-61
2024/01/13 01:55:02;;;;;;;15.95;10.70;;;;;;;;;;5103032;27;20052;-61
2024/01/13 01:57:29;;;;;;;14.15;9.70;;;;;;;;;;5103050;28;20156;-61
2024/01/13 01:59:56;;;;;;;15.13;9.93;;;;;;;;;;5102398;27;20085;-59
2024/01/13 02:02:22;;;;;;;17.90;10.57;;;;;;;;;;5103260;28;20072;-61
2024/01/13 02:04:49;;;;;;;17.20;11.10;;;;;;;;;;5103139;28;20133;-61
2024/01/13 02:07:16;;;;;;;15.75;10.20;;;;;;;;;;5102717;27;20052;-61
2024/01/13 02:09:42;;;;;;;15.45;10.68;;;;;;;;;;5103193;27;20055;-58
2024/01/13 02:12:09;;;;;;;14.85;9.95;;;;;;;;;;5103365;27;20052;-61
2024/01/13 02:14:36;;;;;;;15.15;10.45;;;;;;;;;;5102949;28;20063;-61
2024/01/13 02:17:02;;;;;;;16.15;10.35;;;;;;;;;;5102960;27;20379;-61
2024/01/13 02:19:32;;;;;;;17.15;10.80;;;;;;;;;;5101561;28;20553;-60
2024/01/13 02:21:59;;;;;;;17.52;10.45;;;;;;;;;;5102849;28;20544;-60
2024/01/13 02:24:25;;;;;;;16.02;10.38;;;;;;;;;;5103063;27;20051;-61
2024/01/13 02:26:52;;;;;;;17.15;10.25;;;;;;;;;;5102254;28;20059;-61
2024/01/13 02:29:18;;;;;;;14.50;9.82;;;;;;;;;;5102932;27;20143;-61
2024/01/13 02:31:45;;;;;;;17.83;10.70;;;;;;;;;;5102818;27;20048;-60
2024/01/13 02:34:12;;;;;;;16.95;10.40;;;;;;;;;;5102582;28;20139;-61
2024/01/13 02:36:38;;;;;;;18.55;12.05;;;;;;;;;;5102166;27;20371;-61
2024/01/13 02:39:05;;;;;;;17.50;10.75;;;;;;;;;;5102712;27;20056;-59
2024/01/13 02:41:31;;;;;;;20.85;11.10;;;;;;;;;;5102120;27;20047;-59
2024/01/13 02:43:58;;;;;;;13.73;9.85;;;;;;;;;;5103246;27;20048;-61
2024/01/13 02:46:24;;;;;;;16.77;10.70;;;;;;;;;;5105867;27;20499;-59
2024/01/13 02:48:53;;;;;;;18.35;10.05;;;;;;;;;;5105961;27;20063;-60
2024/01/13 02:51:20;;;;;;;17.88;9.93;;;;;;;;;;5105983;27;20060;-59
2024/01/13 02:53:47;;;;;;;18.48;9.77;;;;;;;;;;5106164;27;20129;-60
2024/01/13 02:56:15;;;;;;;18.27;10.32;;;;;;;;;;5105815;27;20569;-61
2024/01/13 02:58:41;;;;;;;16.92;10.27;;;;;;;;;;5106658;28;20047;-61
2024/01/13 03:01:12;;;;;;;16.75;10.60;;;;;;;;;;5106769;28;20067;-61
2024/01/13 03:03:39;;;;;;;18.05;11.00;;;;;;;;;;5105717;28;20109;-61
2024/01/13 03:06:07;;;;;;;18.77;10.68;;;;;;;;;;5105794;27;20056;-61
2024/01/13 03:08:34;;;;;;;18.25;11.18;;;;;;;;;;5105068;27;20506;-61
2024/01/13 03:11:08;;;;;;;16.63;10.43;;;;;;;;;;5104693;28;20422;-60
2024/01/13 03:13:36;;;;;;;18.05;11.43;;;;;;;;;;5105424;28;20056;-61
2024/01/13 03:16:02;;;;;;;16.85;11.00;;;;;;;;;;5105572;28;20623;-60
2024/01/13 03:18:29;;;;;;;21.20;11.25;;;;;;;;;;5106074;27;20044;-61
2024/01/13 03:21:05;;;;;;;18.05;11.05;;;;;;;;;;5106391;28;20052;-59
2024/01/13 03:23:32;;;;;;;20.42;12.13;;;;;;;;;;5105385;27;20048;-58
2024/01/13 03:25:58;;;;;;;21.65;11.35;;;;;;;;;;5105086;27;20529;-61
2024/01/13 03:28:25;;;;;;;21.10;11.55;;;;;;;;;;5105654;27;20532;-59
2024/01/13 03:31:05;;;;;;;20.08;10.77;;;;;;;;;;5105471;27;20131;-60
2024/01/13 03:33:31;;;;;;;22.40;11.82;;;;;;;;;;5105485;27;20052;-59
2024/01/13 03:35:58;;;;;;;17.85;10.65;;;;;;;;;;5105458;28;20056;-61
2024/01/13 03:38:25;;;;;;;21.25;11.55;;;;;;;;;;5105649;27;20490;-61
2024/01/13 03:41:05;;;;;;;22.13;12.30;;;;;;;;;;5105333;27;20099;-60
2024/01/13 03:43:31;;;;;;;24.35;13.05;;;;;;;;;;5105810;28;20623;-59
2024/01/13 03:45:58;;;;;;;22.13;12.07;;;;;;;;;;5105247;28;20048;-60
2024/01/13 03:48:24;;;;;;;20.85;11.52;;;;;;;;;;5105549;27;20166;-61
2024/01/13 03:50:51;;;;;;;20.50;12.05;;;;;;;;;;5104457;27;20087;-60
2024/01/13 03:53:17;;;;;;;28.90;13.35;;;;;;;;;;5105648;27;20056;-60
2024/01/13 03:55:44;;;;;;;21.85;12.07;;;;;;;;;;5103862;27;20055;-57
2024/01/13 03:58:10;;;;;;;25.95;13.32;;;;;;;;;;5105325;27;20917;-60
2024/01/13 04:00:36;;;;;;;26.10;13.30;;;;;;;;;;5104647;27;20059;-60
2024/01/13 04:03:03;;;;;;;28.00;13.43;;;;;;;;;;5105335;28;20076;-61
2024/01/13 04:05:29;;;;;;;30.60;15.52;;;;;;;;;;5105343;27;20135;-60
2024/01/13 04:07:56;;;;;;;29.55;15.10;;;;;;;;;;5104867;27;20051;-61
2024/01/13 04:10:22;;;;;;;36.25;16.30;;;;;;;;;;5104349;27;20068;-58
2024/01/13 04:12:49;;;;;;;31.23;15.38;;;;;;;;;;5104990;28;20075;-60
2024/01/13 04:15:15;;;;;;;29.35;14.35;;;;;;;;;;5104742;28;20062;-61
2024/01/13 04:17:42;;;;;;;34.20;15.25;;;;;;;;;;5105076;27;20051;-61
2024/01/13 04:20:09;;;;;;;30.17;13.38;;;;;;;;;;5104865;28;20497;-61
2024/01/13 04:22:35;;;;;;;28.98;14.25;;;;;;;;;;5103484;28;20075;-60
2024/01/13 04:25:02;;;;;;;29.35;13.50;;;;;;;;;;5104217;28;20101;-60
2024/01/13 04:27:28;;;;;;;27.80;13.93;;;;;;;;;;5104457;27;20105;-60
2024/01/13 04:29:55;;;;;;;26.90;13.18;;;;;;;;;;5104219;27;20495;-60
2024/01/13 04:32:21;;;;;;;25.85;14.02;;;;;;;;;;5104404;28;20048;-61
2024/01/13 04:34:48;;;;;;;29.17;12.50;;;;;;;;;;5104826;28;20055;-60
2024/01/13 04:37:14;;;;;;;30.08;14.00;;;;;;;;;;5104447;27;20052;-60
2024/01/13 04:39:41;;;;;;;23.08;12.40;;;;;;;;;;5103849;27;20056;-61
2024/01/13 04:42:07;;;;;;;25.25;11.77;;;;;;;;;;5104505;28;20106;-60
2024/01/13 04:44:34;;;;;;;29.52;13.65;;;;;;;;;;5104060;28;20524;-60
2024/01/13 04:47:00;;;;;;;25.48;11.90;;;;;;;;;;5104423;28;20560;-61
2024/01/13 04:49:27;;;;;;;23.83;11.85;;;;;;;;;;5103673;27;20060;-61
2024/01/13 04:51:53;;;;;;;26.10;12.05;;;;;;;;;;5103309;27;20063;-60
2024/01/13 04:54:19;;;;;;;24.55;12.00;;;;;;;;;;5103812;27;20127;-60
2024/01/13 04:56:46;;;;;;;24.70;11.98;;;;;;;;;;5103835;27;20580;-60
2024/01/13 04:59:13;;;;;;;25.55;10.75;;;;;;;;;;5104587;27;20063;-61
2024/01/13 05:01:39;;;;;;;25.52;11.57;;;;;;;;;;5104444;27;20080;-61
2024/01/13 05:04:06;;;;;;;22.15;11.10;;;;;;;;;;5103912;27;20629;-60
2024/01/13 05:06:32;;;;;;;22.55;11.52;;;;;;;;;;5103088;28;20055;-61
2024/01/13 05:08:59;;;;;;;22.50;10.75;;;;;;;;;;5103835;27;20182;-59
2024/01/13 05:11:26;;;;;;;24.38;9.70;;;;;;;;;;5103535;27;20183;-60
2024/01/13 05:13:52;;;;;;;20.92;10.52;;;;;;;;;;5103176;27;20293;-61
2024/01/13 05:16:18;;;;;;;21.50;9.77;;;;;;;;;;5104206;28;20063;-60
2024/01/13 05:18:45;;;;;;;19.23;8.50;;;;;;;;;;5104010;27;20690;-60
2024/01/13 05:21:13;;;;;;;21.70;8.45;;;;;;;;;;5104536;27;20052;-61
2024/01/13 05:23:39;;;;;;;20.98;9.75;;;;;;;;;;5103319;27;20064;-60
2024/01/13 05:26:05;;;;;;;21.05;8.82;;;;;;;;;;5103771;27;20055;-61
2024/01/13 05:28:32;;;;;;;17.77;7.93;;;;;;;;;;5103994;27;20087;-60
2024/01/13 05:30:58;;;;;;;16.58;8.60;;;;;;;;;;5104084;27;20135;-61
2024/01/13 05:33:26;;;;;;;16.58;7.45;;;;;;;;;;5103525;27;20055;-60
2024/01/13 05:35:53;;;;;;;14.77;6.90;;;;;;;;;;5103076;27;20076;-60
2024/01/13 05:38:20;;;;;;;17.52;7.55;;;;;;;;;;5103924;28;20076;-60
2024/01/13 05:40:47;;;;;;;12.30;7.32;;;;;;;;;;5103445;28;20052;-61
2024/01/13 05:43:14;;;;;;;13.50;6.28;;;;;;;;;;5103371;27;20052;-61
2024/01/13 05:45:40;;;;;;;12.38;7.22;;;;;;;;;;5103575;27;20091;-60
2024/01/13 05:48:06;;;;;;;15.52;7.07;;;;;;;;;;5102779;27;20052;-60
2024/01/13 05:50:33;;;;;;;18.00;7.55;;;;;;;;;;5102261;27;20060;-57
2024/01/13 05:52:59;;;;;;;18.23;8.60;;;;;;;;;;5103205;27;20060;-61
2024/01/13 05:55:26;;;;;;;19.20;8.40;;;;;;;;;;5103485;27;20911;-59
2024/01/13 05:57:55;;;;;;;22.80;10.10;;;;;;;;;;5103332;27;20513;-60
2024/01/13 06:00:22;;;;;;;18.65;8.70;;;;;;;;;;5103120;28;20103;-61
2024/01/13 06:02:48;;;;;;;19.67;9.10;;;;;;;;;;5102743;27;20470;-59
2024/01/13 06:05:14;;;;;;;22.05;10.13;;;;;;;;;;5102720;27;20052;-60
2024/01/13 06:07:42;;;;;;;20.80;9.90;;;;;;;;;;5103339;27;20056;-60
2024/01/13 06:10:10;;;;;;;18.95;9.52;;;;;;;;;;5103555;28;20048;-60
2024/01/13 06:12:36;;;;;;;22.95;10.00;;;;;;;;;;5102964;27;20056;-61
2024/01/13 06:15:03;;;;;;;19.55;9.38;;;;;;;;;;5103329;28;20104;-60
2024/01/13 06:17:30;;;;;;;22.95;10.60;;;;;;;;;;5102620;27;20056;-60
2024/01/13 06:19:57;;;;;;;19.13;9.02;;;;;;;;;;5105982;27;20076;-61
2024/01/13 06:22:23;;;;;;;20.77;9.95;;;;;;;;;;5106766;27;20048;-59
2024/01/13 06:24:49;;;;;;;22.08;11.00;;;;;;;;;;5106545;27;20052;-61
2024/01/13 06:27:16;;;;;;;23.10;11.32;;;;;;;;;;5106476;27;20052;-58
2024/01/13 06:29:42;;;;;;;20.95;10.63;;;;;;;;;;5106104;27;20044;-60
2024/01/13 06:32:09;;;;;;;24.15;11.30;;;;;;;;;;5106314;28;20466;-60
2024/01/13 06:34:35;;;;;;;20.73;10.27;;;;;;;;;;5105982;28;20060;-61
2024/01/13 06:37:02;;;;;;;24.63;10.77;;;;;;;;;;5106553;27;20101;-61
2024/01/13 06:39:30;;;;;;;27.10;10.73;;;;;;;;;;5106137;27;20135;-59
2024/01/13 06:41:56;;;;;;;29.48;11.07;;;;;;;;;;5106094;27;20052;-60
2024/01/13 06:44:23;;;;;;;22.90;11.00;;;;;;;;;;5106542;27;20135;-61
2024/01/13 06:47:02;;;;;;;24.92;10.63;;;;;;;;;;5106407;28;20182;-61
2024/01/13 06:49:29;;;;;;;23.10;11.65;;;;;;;;;;5105315;27;20052;-59
2024/01/13 06:51:55;;;;;;;20.73;10.80;;;;;;;;;;5105127;27;20056;-61
2024/01/13 06:54:22;;;;;;;22.23;11.02;;;;;;;;;;5104525;27;20129;-60
2024/01/13 06:56:48;;;;;;;22.88;9.73;;;;;;;;;;5106494;27;20040;-61
2024/01/13 06:59:15;;;;;;;23.98;11.07;;;;;;;;;;5105919;27;20062;-61
2024/01/13 07:01:41;;;;;;;20.85;10.32;;;;;;;;;;5106374;28;20328;-60
2024/01/13 07:04:09;;;;;;;22.45;11.13;;;;;;;;;;5105869;27;20054;-60
2024/01/13 07:06:36;;;;;;;23.05;9.93;;;;;;;;;;5104994;28;20063;-60
2024/01/13 07:09:03;;;;;;;20.58;9.10;;;;;;;;;;5104933;27;20608;-60
2024/01/13 07:11:30;;;;;;;20.20;10.38;;;;;;;;;;5105727;27;20135;-59
2024/01/13 07:13:56;;;;;;;20.23;10.02;;;;;;;;;;5105672;27;20506;-58
2024/01/13 07:16:23;;;;;;;19.73;9.73;;;;;;;;;;5106181;27;20048;-61
2024/01/13 07:18:49;;;;;;;16.27;9.48;;;;;;;;;;5105909;27;20051;-61
2024/01/13 07:21:16;;;;;;;17.15;9.05;;;;;;;;;;5105161;27;20058;-61
2024/01/13 07:23:43;;;;;;;15.30;8.40;;;;;;;;;;5106009;27;20062;-60
2024/01/13 07:26:10;;;;;;;15.05;8.73;;;;;;;;;;5105944;28;20058;-61
2024/01/13 07:28:36;;;;;;;13.07;7.60;;;;;;;;;;5105589;27;20481;-59
2024/01/13 07:31:03;;;;;;;15.57;7.68;;;;;;;;;;5104790;27;20502;-61
2024/01/13 07:33:29;;;;;;;11.18;6.93;;;;;;;;;;5104808;27;20052;-59
2024/01/13 07:35:56;;;;;;;13.63;7.20;;;;;;;;;;5104247;27;20538;-60
2024/01/13 07:38:22;;;;;;;11.95;7.13;;;;;;;;;;5109330;27;20059;-60
2024/01/13 07:40:49;;;;;;;13.63;7.05;;;;;;;;;;5105839;27;20584;-59
2024/01/13 07:43:15;;;;;;;16.48;7.18;;;;;;;;;;5105433;27;20056;-60
2024/01/13 07:45:42;;;;;;;9.32;6.47;;;;;;;;;;5101419;27;20561;-60
2024/01/13 07:48:08;;;;;;;10.50;5.82;;;;;;;;;;5095908;28;20055;-59
2024/01/13 07:50:35;;;;;;;13.23;6.75;;;;;;;;;;5087832;27;20141;-60
2024/01/13 07:53:02;;;;;;;11.10;5.72;;;;;;;;;;5100507;27;20066;-60
2024/01/13 07:55:28;;;;;;;9.88;5.38;;;;;;;;;;5084505;28;20060;-60
2024/01/13 07:57:55;;;;;;;10.50;4.93;;;;;;;;;;5084597;28;20532;-60
2024/01/13 08:00:23;;;;;;;7.50;4.75;;;;;;;;;;5097611;27;20056;-60
2024/01/13 08:02:49;;;;;;;10.73;5.18;;;;;;;;;;5092434;27;20521;-60
2024/01/13 08:05:16;;;;;;;9.40;4.72;;;;;;;;;;5085678;28;20511;-59
2024/01/13 08:07:43;;;;;;;7.72;4.90;;;;;;;;;;5086312;28;20588;-57
2024/01/13 08:10:10;;;;;;;9.00;4.60;;;;;;;;;;5105373;27;20113;-60
2024/01/13 08:12:36;;;;;;;8.43;4.85;;;;;;;;;;5088549;27;20102;-58
2024/01/13 08:15:03;;;;;;;11.73;4.97;;;;;;;;;;5086544;28;20055;-60
2024/01/13 08:17:30;;;;;;;9.20;5.15;;;;;;;;;;5086866;27;20498;-60
2024/01/13 08:19:56;;;;;;;6.70;4.88;;;;;;;;;;5096521;27;20052;-58
2024/01/13 08:22:23;;;;;;;9.07;5.70;;;;;;;;;;5105481;27;20548;-60
2024/01/13 08:24:49;;;;;;;11.38;5.25;;;;;;;;;;5104731;27;20063;-59
2024/01/13 08:27:16;;;;;;;10.13;5.40;;;;;;;;;;5104686;27;20048;-60
2024/01/13 08:29:43;;;;;;;9.63;6.18;;;;;;;;;;5078819;27;20237;-60
2024/01/13 08:32:10;;;;;;;8.50;5.43;;;;;;;;;;5085926;27;20063;-60
2024/01/13 08:34:37;;;;;;;8.05;5.45;;;;;;;;;;5097536;28;20051;-60
2024/01/13 08:37:05;;;;;;;9.18;5.78;;;;;;;;;;5102576;27;20067;-60
2024/01/13 08:39:32;;;;;;;8.82;6.45;;;;;;;;;;5103474;27;20059;-60
2024/01/13 08:41:58;;;;;;;19.25;11.63;;;;;;;;;;5103056;27;20055;-61
2024/01/13 08:44:25;;;;;;;11.57;7.65;;;;;;;;;;5103308;28;20113;-61
2024/01/13 08:46:51;;;;;;;14.65;8.27;;;;;;;;;;5103781;27;20531;-61
2024/01/13 08:49:18;;;;;;;8.38;6.07;;;;;;;;;;5104063;27;20055;-60
2024/01/13 08:51:44;;;;;;;13.05;8.05;;;;;;;;;;5102606;27;20095;-62
2024/01/13 08:54:11;;;;;;;18.92;14.45;;;;;;;;;;5087907;28;20060;-60
2024/01/13 08:56:37;;;;;;;17.92;12.90;;;;;;;;;;5103617;27;20060;-60
2024/01/13 08:59:06;;;;;;;19.90;10.65;;;;;;;;;;5102772;28;20052;-59
2024/01/13 09:01:33;;;;;;;12.30;8.93;;;;;;;;;;5095907;28;20052;-59
2024/01/13 09:04:05;;;;;;;12.32;7.00;;;;;;;;;;5095011;27;20080;-61
2024/01/13 09:06:32;;;;;;;14.65;9.57;;;;;;;;;;5111517;27;20062;-59
2024/01/13 09:08:58;;;;;;;11.52;7.13;;;;;;;;;;5102922;27;20080;-59
2024/01/13 09:11:25;;;;;;;22.45;11.70;;;;;;;;;;5103041;27;20105;-60
2024/01/13 09:14:06;;;;;;;22.77;16.85;;;;;;;;;;5091426;28;20118;-60
2024/01/13 09:16:33;;;;;;;14.02;9.75;;;;;;;;;;5103201;28;20064;-58
2024/01/13 09:18:59;;;;;;;19.33;13.50;;;;;;;;;;5094308;27;20498;-59
2024/01/13 09:21:26;;;;;;;15.27;10.23;;;;;;;;;;5097305;27;20514;-60
2024/01/13 09:24:06;;;;;;;40.13;26.52;;;;;;;;;;5102566;28;20062;-59
2024/01/13 09:26:33;;;;;;;73.57;54.78;;;;;;;;;;5099937;27;20063;-59
2024/01/13 09:29:02;;;;;;;84.72;65.68;;;;;;;;;;5103648;28;20148;-59
2024/01/13 09:31:28;;;;;;;16.00;10.65;;;;;;;;;;5102595;28;20063;-60
2024/01/13 09:34:07;;;;;;;21.85;14.68;;;;;;;;;;5093119;28;20048;-60
2024/01/13 09:36:35;;;;;;;17.02;11.30;;;;;;;;;;5082698;28;20070;-60
2024/01/13 09:39:01;;;;;;;14.68;10.32;;;;;;;;;;5082732;28;20109;-60
2024/01/13 09:41:29;;;;;;;15.57;9.45;;;;;;;;;;5082389;28;20056;-60
2024/01/13 09:44:10;;;;;;;16.58;13.38;;;;;;;;;;5093795;28;20048;-57
2024/01/13 09:46:36;;;;;;;13.90;7.85;;;;;;;;;;5103150;28;20051;-61
2024/01/13 09:49:05;;;;;;;12.55;7.38;;;;;;;;;;5103912;27;20631;-60
2024/01/13 09:51:32;;;;;;;14.50;8.38;;;;;;;;;;5102713;27;20137;-60
2024/01/13 09:54:06;;;;;;;16.25;7.80;;;;;;;;;;5102395;27;20084;-60
2024/01/13 09:56:33;;;;;;;13.20;9.35;;;;;;;;;;5101732;27;20051;-59
2024/01/13 09:59:00;;;;;;;15.27;8.98;;;;;;;;;;5101238;27;20051;-60
2024/01/13 10:01:27;;;;;;;16.88;9.13;;;;;;;;;;5100226;27;20044;-59
2024/01/13 10:04:00;;;;;;;17.25;9.63;;;;;;;;;;5101955;27;20101;-59
2024/01/13 10:06:27;;;;;;;16.30;9.45;;;;;;;;;;5101799;27;20326;-58
2024/01/13 10:08:54;;;;;;;16.45;10.02;;;;;;;;;;5101381;27;20060;-58
2024/01/13 10:11:20;;;;;;;15.43;9.85;;;;;;;;;;5102582;28;20141;-58
2024/01/13 10:14:03;;;;;;;19.40;10.55;;;;;;;;;;5102915;27;20052;-59
2024/01/13 10:16:30;;;;;;;23.85;13.27;;;;;;;;;;5102984;28;20056;-59
2024/01/13 10:19:03;;;;;;;22.52;12.63;;;;;;;;;;5101883;27;20059;-58
2024/01/13 10:21:29;;;;;;;18.75;12.32;;;;;;;;;;5102459;28;20052;-58
2024/01/13 10:24:05;;;;;;;19.00;11.70;;;;;;;;;;5102970;27;20048;-60
2024/01/13 10:26:32;;;;;;;21.20;12.10;;;;;;;;;;5101761;27;20219;-59
2024/01/13 10:28:59;;;;;;;22.83;13.98;;;;;;;;;;5102794;27;20052;-59
2024/01/13 10:31:25;;;;;;;42.08;25.52;;;;;;;;;;5102336;27;20113;-59
2024/01/13 10:34:02;;;;;;;51.80;34.05;;;;;;;;;;5099812;27;20579;-59
2024/01/13 10:36:30;;;;;;;34.22;22.50;;;;;;;;;;5082472;28;20087;-59
2024/01/13 10:38:58;;;;;;;32.72;22.00;;;;;;;;;;5082641;28;20124;-58
2024/01/13 10:41:28;;;;;;;34.28;23.38;;;;;;;;;;5081592;28;20056;-60
2024/01/13 10:44:02;;;;;;;34.22;21.27;;;;;;;;;;5082727;28;20063;-59
2024/01/13 10:46:29;;;;;;;35.30;23.08;;;;;;;;;;5082286;28;20060;-58
2024/01/13 10:48:59;;;;;;;26.83;15.43;;;;;;;;;;5081982;28;20153;-60
2024/01/13 10:51:33;;;;;;;22.05;14.38;;;;;;;;;;5082013;28;20063;-58
2024/01/13 10:54:01;;;;;;;32.95;21.85;;;;;;;;;;5082019;28;20056;-60
2024/01/13 10:56:31;;;;;;;34.40;22.23;;;;;;;;;;5082030;28;20044;-59
2024/01/13 10:58:58;;;;;;;30.48;16.98;;;;;;;;;;5094936;28;20051;-59
2024/01/13 11:01:25;;;;;;;33.60;19.55;;;;;;;;;;5102116;27;20055;-61
2024/01/13 11:04:01;;;;;;;37.43;19.80;;;;;;;;;;5102718;27;20609;-60
2024/01/13 11:06:28;;;;;;;31.73;19.55;;;;;;;;;;5105583;27;20052;-59
2024/01/13 11:08:55;;;;;;;30.80;19.08;;;;;;;;;;5095073;28;20055;-59
2024/01/13 11:11:24;;;;;;;35.78;19.95;;;;;;;;;;5085016;28;20066;-59
2024/01/13 11:14:09;;;;;;;34.38;21.02;;;;;;;;;;5093837;28;20052;-59
2024/01/13 11:16:37;;;;;;;36.92;20.30;;;;;;;;;;5105800;28;20702;-59
2024/01/13 11:19:06;;;;;;;36.45;21.80;;;;;;;;;;5093466;27;20530;-59
2024/01/13 11:21:33;;;;;;;37.80;23.38;;;;;;;;;;5080914;27;20536;-58
2024/01/13 11:24:12;;;;;;;40.70;24.10;;;;;;;;;;5089453;28;20118;-58
2024/01/13 11:26:42;;;;;;;42.22;26.63;;;;;;;;;;5097936;28;20506;-59
2024/01/13 11:29:16;;;;;;;46.05;33.50;;;;;;;;;;5106700;27;20303;-60
2024/01/13 11:31:43;;;;;;;48.38;29.30;;;;;;;;;;5101647;28;20088;-59
2024/01/13 11:34:14;;;;;;;45.65;26.50;;;;;;;;;;5097853;28;20510;-60
2024/01/13 11:36:45;;;;;;;45.05;26.60;;;;;;;;;;5105967;27;20049;-58
2024/01/13 11:39:12;;;;;;;43.10;24.10;;;;;;;;;;5105289;27;21043;-60
2024/01/13 11:41:42;;;;;;;44.30;27.60;;;;;;;;;;5106937;28;20064;-59
2024/01/13 11:44:08;;;;;;;46.38;24.42;;;;;;;;;;5098493;27;20092;-61
2024/01/13 11:46:37;;;;;;;50.95;30.67;;;;;;;;;;5104246;27;20052;-60
2024/01/13 11:49:05;;;;;;;52.83;27.17;;;;;;;;;;5102488;28;20687;-61
2024/01/13 11:51:50;;;;;;;46.20;26.27;;;;;;;;;;5104238;27;20055;-60
2024/01/13 11:54:20;;;;;;;44.95;29.13;;;;;;;;;;5101833;27;20059;-60
2024/01/13 11:56:48;;;;;;;44.88;28.77;;;;;;;;;;5102691;27;20048;-61
2024/01/13 11:59:15;;;;;;;54.08;31.10;;;;;;;;;;5100100;27;20536;-60
2024/01/13 12:01:45;;;;;;;53.30;27.90;;;;;;;;;;5104274;27;20208;-60
2024/01/13 12:04:13;;;;;;;56.05;33.67;;;;;;;;;;5104820;28;20048;-61
2024/01/13 12:06:40;;;;;;;53.97;33.33;;;;;;;;;;5099884;28;20147;-61
2024/01/13 12:09:06;;;;;;;51.65;29.23;;;;;;;;;;5103001;27;20167;-60
2024/01/13 12:11:33;;;;;;;41.95;26.15;;;;;;;;;;5100680;27;20062;-60
2024/01/13 12:14:04;;;;;;;47.83;28.85;;;;;;;;;;5102056;27;20051;-61
2024/01/13 12:16:30;;;;;;;48.65;28.73;;;;;;;;;;5103589;28;20640;-59
2024/01/13 12:18:57;;;;;;;50.45;28.08;;;;;;;;;;5105252;28;20517;-60
2024/01/13 12:21:23;;;;;;;46.50;26.20;;;;;;;;;;5100182;28;20056;-60
2024/01/13 12:24:05;;;;;;;48.58;29.55;;;;;;;;;;5101030;28;20563;-60
2024/01/13 12:26:32;;;;;;;46.15;26.42;;;;;;;;;;5103945;27;20076;-59
2024/01/13 12:28:59;;;;;;;43.33;24.67;;;;;;;;;;5104976;27;20485;-60
2024/01/13 12:31:26;;;;;;;45.72;24.83;;;;;;;;;;5104479;27;20135;-59
2024/01/13 12:34:13;;;;;;;47.45;25.48;;;;;;;;;;5103653;28;20567;-60
2024/01/13 12:36:40;;;;;;;46.90;26.50;;;;;;;;;;5091208;28;20050;-60
2024/01/13 12:39:06;;;;;;;49.10;27.52;;;;;;;;;;5103260;27;20569;-60
2024/01/13 12:41:36;;;;;;;48.15;27.58;;;;;;;;;;5101915;28;20910;-60
2024/01/13 12:44:10;;;;;;;61.17;35.83;;;;;;;;;;5101412;27;20059;-60
2024/01/13 12:46:37;;;;;;;48.20;28.85;;;;;;;;;;5102913;27;20068;-60
2024/01/13 12:49:13;;;;;;;46.85;25.88;;;;;;;;;;5103386;27;20079;-60
2024/01/13 12:51:43;;;;;;;45.58;25.90;;;;;;;;;;5103285;27;20163;-60
2024/01/13 12:54:10;;;;;;;48.70;26.83;;;;;;;;;;5102282;27;20517;-60
2024/01/13 12:56:37;;;;;;;40.00;22.70;;;;;;;;;;5104099;28;20052;-60
2024/01/13 12:59:03;;;;;;;38.35;22.67;;;;;;;;;;5099757;27;20517;-60
2024/01/13 13:01:30;;;;;;;43.28;22.48;;;;;;;;;;5103995;28;20052;-59
2024/01/13 13:03:58;;;;;;;38.55;23.23;;;;;;;;;;5102991;28;20250;-57
2024/01/13 13:06:26;;;;;;;39.17;23.20;;;;;;;;;;5100318;27;20072;-60
2024/01/13 13:08:53;;;;;;;44.38;23.05;;;;;;;;;;5089264;28;20055;-60
2024/01/13 13:11:20;;;;;;;41.92;24.17;;;;;;;;;;5101239;27;20097;-58
2024/01/13 13:13:48;;;;;;;48.10;25.10;;;;;;;;;;5103589;28;20059;-60
2024/01/13 13:16:15;;;;;;;43.10;23.65;;;;;;;;;;5104456;28;20143;-60
2024/01/13 13:18:42;;;;;;;41.30;22.40;;;;;;;;;;5102687;27;20140;-60
2024/01/13 13:21:09;;;;;;;40.00;21.70;;;;;;;;;;5099734;27;20109;-58
2024/01/13 13:23:35;;;;;;;38.40;20.92;;;;;;;;;;5103072;28;20862;-60
2024/01/13 13:26:04;;;;;;;40.90;22.30;;;;;;;;;;5100582;27;20268;-60
2024/01/13 13:28:32;;;;;;;40.53;21.10;;;;;;;;;;5095122;28;20056;-59
2024/01/13 13:30:59;;;;;;;40.30;21.25;;;;;;;;;;5103016;27;20051;-60
2024/01/13 13:33:28;;;;;;;37.42;20.55;;;;;;;;;;5103392;28;20846;-56
2024/01/13 13:35:55;;;;;;;55.42;34.13;;;;;;;;;;5100079;27;20522;-60
2024/01/13 13:38:22;;;;;;;70.45;51.60;;;;;;;;;;5102038;28;20051;-58
2024/01/13 13:40:48;;;;;;;42.50;28.60;;;;;;;;;;5102143;28;20059;-58
2024/01/13 13:43:15;;;;;;;45.38;28.10;;;;;;;;;;5101072;27;20055;-60
2024/01/13 13:45:42;;;;;;;39.28;23.55;;;;;;;;;;5100132;27;20080;-60
2024/01/13 13:48:09;;;;;;;37.30;21.23;;;;;;;;;;5103036;27;20056;-59
2024/01/13 13:50:35;;;;;;;37.28;21.73;;;;;;;;;;5099190;27;20378;-59
2024/01/13 13:53:05;;;;;;;40.70;25.20;;;;;;;;;;5102743;28;20494;-59
2024/01/13 13:55:34;;;;;;;38.67;20.45;;;;;;;;;;5103260;27;20140;-59
2024/01/13 13:58:01;;;;;;;43.83;25.08;;;;;;;;;;5102935;28;20059;-61
2024/01/13 14:00:28;;;;;;;34.65;21.98;;;;;;;;;;5096061;28;20056;-59
2024/01/13 14:02:56;;;;;;;44.22;24.67;;;;;;;;;;5086049;28;20049;-60
2024/01/13 14:05:23;;;;;;;38.05;21.15;;;;;;;;;;5100339;28;20052;-60
2024/01/13 14:07:49;;;;;;;35.40;20.02;;;;;;;;;;5087391;27;20968;-61
2024/01/13 14:10:16;;;;;;;38.58;22.70;;;;;;;;;;5082346;28;20229;-61
2024/01/13 14:12:43;;;;;;;37.28;22.58;;;;;;;;;;5083304;28;20959;-58
2024/01/13 14:15:09;;;;;;;40.25;21.88;;;;;;;;;;5083282;28;20562;-61
2024/01/13 14:17:45;;;;;;;34.80;20.17;;;;;;;;;;5082452;28;20048;-59
2024/01/13 14:20:14;;;;;;;32.22;19.98;;;;;;;;;;5086780;28;20056;-58
2024/01/13 14:22:47;;;;;;;36.90;22.48;;;;;;;;;;5103948;27;20048;-59
2024/01/13 14:25:14;;;;;;;41.10;22.25;;;;;;;;;;5103359;27;20052;-58